Time;durP1;ratioP1;P1;durP2;ratioP2;P2;SDS_P1;SDS_P2;PMS_P1;PMS_P2;Temp;Humidity;BMP_temperature;BMP_pressure;BME280_temperature;BME280_humidity;BME280_pressure;Samples;Min_cycle;Max_cycle;Signal;HPM_P1;HPM_P2
2022/12/03 07:21:15;;;;;;;38.45;14.38;;;;;;;1.33;100.00;99118.03;5139271;27;20410;-75
2022/12/03 07:23:42;;;;;;;39.17;15.68;;;;;;;1.58;100.00;99137.41;5107173;28;20044;-76
2022/12/03 07:26:08;;;;;;;49.97;16.33;;;;;;;1.65;100.00;99130.56;5107700;28;20051;-76
2022/12/03 07:28:35;;;;;;;40.83;14.48;;;;;;;1.77;100.00;99136.72;5098965;28;20058;-78
2022/12/03 07:31:02;;;;;;;48.17;15.38;;;;;;;1.64;100.00;99106.56;5106837;28;20116;-77
2022/12/03 07:33:29;;;;;;;43.75;15.63;;;;;;;1.81;100.00;99111.34;5107176;28;20185;-77
2022/12/03 07:35:55;;;;;;;46.03;15.27;;;;;;;1.90;100.00;99123.97;5108170;28;20047;-77
2022/12/03 07:38:23;;;;;;;39.03;13.73;;;;;;;1.91;100.00;99104.22;5107187;28;20048;-77
2022/12/03 07:40:50;;;;;;;41.17;14.05;;;;;;;1.95;100.00;99102.97;5106648;28;20498;-77
2022/12/03 07:43:16;;;;;;;38.80;13.07;;;;;;;1.88;100.00;99091.09;5102595;28;20483;-77
2022/12/03 07:45:43;;;;;;;43.90;15.40;;;;;;;2.01;100.00;99109.66;5104679;28;20052;-77
2022/12/03 07:48:09;;;;;;;41.13;13.60;;;;;;;1.88;100.00;99098.25;5081699;28;20040;-77
2022/12/03 07:50:36;;;;;;;45.85;14.98;;;;;;;2.02;100.00;99114.03;5084631;28;20055;-77
2022/12/03 07:53:03;;;;;;;39.53;14.63;;;;;;;2.06;100.00;99111.94;5085293;28;20048;-77
2022/12/03 07:55:31;;;;;;;40.78;14.75;;;;;;;2.07;100.00;99116.31;5085938;28;20051;-77
2022/12/03 07:57:57;;;;;;;36.17;14.98;;;;;;;2.02;100.00;99097.94;5075295;28;20055;-78
2022/12/03 08:00:24;;;;;;;43.30;14.95;;;;;;;2.04;100.00;99101.34;5074078;28;20041;-77
2022/12/03 08:02:50;;;;;;;49.30;17.90;;;;;;;2.08;100.00;99101.94;5083484;28;20052;-77
2022/12/03 08:05:17;;;;;;;46.08;15.88;;;;;;;2.16;100.00;99112.84;5085080;28;20060;-77
2022/12/03 08:07:43;;;;;;;48.83;16.73;;;;;;;2.19;100.00;99117.94;5085842;28;20054;-77
2022/12/03 08:10:10;;;;;;;42.28;16.92;;;;;;;2.25;100.00;99125.44;5084633;28;20486;-78
2022/12/03 08:12:41;;;;;;;47.28;16.73;;;;;;;2.24;100.00;99133.63;5082398;28;20052;-78
2022/12/03 08:15:11;;;;;;;47.38;16.65;;;;;;;2.15;100.00;99116.50;5080562;28;20411;-77
2022/12/03 08:17:39;;;;;;;52.83;17.27;;;;;;;2.25;100.00;99136.19;5082348;28;20509;-77
2022/12/03 08:20:14;;;;;;;47.20;16.77;;;;;;;2.28;100.00;99127.03;5079441;28;20054;-77
2022/12/03 08:22:41;;;;;;;44.47;16.98;;;;;;;2.27;100.00;99123.50;5083815;28;20044;-78
2022/12/03 08:25:14;;;;;;;42.90;16.33;;;;;;;2.21;100.00;99112.44;5085760;28;20055;-78
2022/12/03 08:27:42;;;;;;;43.85;17.38;;;;;;;2.30;100.00;99127.72;5083204;28;20152;-77
2022/12/03 08:30:15;;;;;;;44.85;17.75;;;;;;;2.30;100.00;99123.25;5083999;28;20040;-78
2022/12/03 08:32:42;;;;;;;38.85;15.77;;;;;;;2.36;100.00;99121.84;5068592;28;20071;-78
2022/12/03 08:35:13;;;;;;;43.47;16.80;;;;;;;2.35;100.00;99120.16;5078114;28;20522;-77
2022/12/03 08:37:40;;;;;;;43.65;16.92;;;;;;;2.39;100.00;99124.25;5070298;28;20051;-78
2022/12/03 08:40:20;;;;;;;41.83;16.05;;;;;;;2.45;100.00;99130.91;5070531;28;20041;-78
2022/12/03 08:42:49;;;;;;;51.85;17.52;;;;;;;2.32;100.00;99114.19;5073581;28;20049;-77
2022/12/03 08:45:39;;;;;;;50.25;17.52;;;;;;;2.40;100.00;99136.69;5073978;28;20053;-77
2022/12/03 08:48:32;;;;;;;46.05;16.48;;;;;;;2.38;100.00;99119.88;5061269;28;20052;-77
2022/12/03 08:51:01;;;;;;;42.22;16.50;;;;;;;2.36;100.00;99127.19;5041554;28;20064;-77
2022/12/03 08:53:34;;;;;;;37.67;15.75;;;;;;;2.24;100.00;99117.53;5063847;28;20082;-77
2022/12/03 08:56:04;;;;;;;44.50;16.35;;;;;;;2.32;100.00;99125.78;5064572;28;20498;-78
2022/12/03 08:58:38;;;;;;;40.53;16.17;;;;;;;2.47;100.00;99137.03;5072246;28;20407;-77
2022/12/03 09:01:39;;;;;;;38.50;15.85;;;;;;;2.44;100.00;99124.72;5071042;28;20064;-76
2022/12/03 09:04:21;;;;;;;46.20;17.38;;;;;;;2.54;100.00;99126.59;4990956;28;20197;-77
2022/12/03 09:06:47;;;;;;;41.95;16.60;;;;;;;2.50;100.00;99120.66;5062636;28;20063;-77
2022/12/03 09:09:14;;;;;;;36.58;14.80;;;;;;;2.54;100.00;99122.06;5070778;28;20171;-77
2022/12/03 09:11:42;;;;;;;38.92;16.88;;;;;;;2.60;100.00;99121.50;5069940;28;20427;-78
2022/12/03 09:14:10;;;;;;;37.42;15.85;;;;;;;2.48;100.00;99093.06;5063426;28;20049;-78
2022/12/03 09:16:37;;;;;;;34.55;15.60;;;;;;;2.70;100.00;99124.25;5072373;28;20053;-77
2022/12/03 09:19:05;;;;;;;41.90;15.55;;;;;;;2.68;100.00;99109.25;5071617;28;20045;-78
2022/12/03 09:21:31;;;;;;;39.30;16.95;;;;;;;2.70;100.00;99115.34;5071281;28;20040;-78
2022/12/03 09:24:01;;;;;;;35.42;15.90;;;;;;;2.75;100.00;99118.47;5069537;28;20131;-78
2022/12/03 09:26:28;;;;;;;36.53;14.88;;;;;;;2.75;100.00;99119.31;5071775;28;20407;-78
2022/12/03 09:28:55;;;;;;;30.65;13.48;;;;;;;2.63;100.00;99105.16;5071644;28;20044;-78
2022/12/03 09:31:23;;;;;;;32.95;15.05;;;;;;;2.46;100.00;99103.09;5071301;28;20040;-78
2022/12/03 09:33:49;;;;;;;31.65;14.30;;;;;;;2.55;100.00;99120.25;5067363;28;20199;-78
2022/12/03 09:36:16;;;;;;;29.45;12.60;;;;;;;2.52;100.00;99113.31;5071539;28;20053;-78
2022/12/03 09:38:42;;;;;;;29.95;13.73;;;;;;;2.60;100.00;99118.00;5071657;28;20040;-78
2022/12/03 09:41:09;;;;;;;34.42;14.48;;;;;;;2.61;100.00;99122.38;5071601;28;20432;-78
2022/12/03 09:43:36;;;;;;;29.60;12.32;;;;;;;2.36;100.00;99118.31;5068382;28;20044;-78
2022/12/03 09:46:04;;;;;;;30.33;14.05;;;;;;;2.52;100.00;99129.41;5071227;28;20050;-78
2022/12/03 09:48:32;;;;;;;33.05;13.50;;;;;;;2.27;100.00;99096.69;5070530;28;20071;-77
2022/12/03 09:50:58;;;;;;;34.17;13.27;;;;;;;2.27;100.00;99117.28;5050557;28;20041;-77
2022/12/03 09:53:27;;;;;;;29.90;13.43;;;;;;;2.31;100.00;99113.34;5043944;28;20076;-78
2022/12/03 09:55:57;;;;;;;28.73;13.05;;;;;;;2.24;100.00;99112.16;5047317;28;20071;-77
2022/12/03 09:58:26;;;;;;;;;;;;;;;2.43;100.00;99114.13;5051038;28;20050;-78
2022/12/03 10:00:53;;;;;;;23.15;11.35;;;;;;;2.34;100.00;99099.66;5049740;28;19925;-78
2022/12/03 10:03:23;;;;;;;23.70;11.02;;;;;;;2.27;100.00;99087.75;5048424;28;20176;-77
2022/12/03 10:05:53;;;;;;;30.35;12.95;;;;;;;2.38;100.00;99106.47;5043867;28;20487;-78
2022/12/03 10:08:22;;;;;;;25.63;12.82;;;;;;;2.44;100.00;99103.25;5049492;28;20056;-77
2022/12/03 10:10:52;;;;;;;29.95;12.70;;;;;;;2.45;100.00;99087.97;5041603;28;20055;-78
2022/12/03 10:13:23;;;;;;;24.95;12.38;;;;;;;2.53;100.00;99087.31;5045035;28;20045;-78
2022/12/03 10:15:50;;;;;;;27.50;10.90;;;;;;;2.55;100.00;99088.03;5046381;28;20053;-77
2022/12/03 10:18:20;;;;;;;26.67;12.80;;;;;;;2.51;100.00;99091.97;5042310;28;20484;-77
2022/12/03 10:20:47;;;;;;;29.33;12.27;;;;;;;2.60;100.00;99086.63;5046015;28;20048;-77
2022/12/03 10:23:27;;;;;;;29.27;11.02;;;;;;;2.58;100.00;99088.59;5045148;28;20053;-77
2022/12/03 10:25:55;;;;;;;28.35;12.82;;;;;;;2.66;100.00;99104.03;5044165;28;20044;-77
2022/12/03 10:28:31;;;;;;;29.25;12.50;;;;;;;2.67;100.00;99097.69;5045846;28;20060;-77
2022/12/03 10:30:58;;;;;;;30.00;13.52;;;;;;;2.77;100.00;99095.00;5053224;28;20395;-78
2022/12/03 10:33:30;;;;;;;21.17;10.88;;;;;;;2.65;100.00;99100.50;5051326;28;20045;-78
2022/12/03 10:35:57;;;;;;;22.08;10.27;;;;;;;2.46;100.00;99090.53;5056313;28;20052;-78
2022/12/03 10:38:25;;;;;;;30.02;13.20;;;;;;;2.66;100.00;99101.34;5050744;28;20051;-78
2022/12/03 10:40:52;;;;;;;28.88;12.65;;;;;;;2.72;100.00;99097.28;5045342;28;20097;-78
2022/12/03 10:43:22;;;;;;;28.48;12.35;;;;;;;2.70;100.00;99099.25;5046825;28;20056;-78
2022/12/03 10:45:50;;;;;;;29.02;11.95;;;;;;;2.65;100.00;99094.28;5042625;28;20053;-78
2022/12/03 10:48:19;;;;;;;30.02;11.85;;;;;;;2.41;100.00;99067.75;5056097;28;20135;-78
2022/12/03 10:50:50;;;;;;;29.63;11.90;;;;;;;2.55;100.00;99096.09;5069091;28;20488;-78
2022/12/03 10:53:18;;;;;;;31.45;12.55;;;;;;;2.54;100.00;99089.84;5068260;28;20052;-78
2022/12/03 10:55:48;;;;;;;26.42;12.80;;;;;;;2.44;100.00;99086.31;5067592;28;20399;-78
2022/12/03 10:58:22;;;;;;;31.27;13.05;;;;;;;2.39;100.00;99091.22;5069507;28;20052;-78
2022/12/03 11:00:50;;;;;;;30.05;12.40;;;;;;;2.39;100.00;99077.78;5069983;28;20392;-78
2022/12/03 11:03:19;;;;;;;34.53;14.30;;;;;;;2.38;100.00;99070.72;5067542;28;20289;-78
2022/12/03 11:05:46;;;;;;;29.85;13.73;;;;;;;2.25;100.00;99062.91;5063360;28;20155;-78
2022/12/03 11:08:18;;;;;;;35.65;15.95;;;;;;;2.36;100.00;99070.84;5067959;28;20044;-78
2022/12/03 11:10:55;;;;;;;34.05;15.00;;;;;;;2.36;100.00;99067.34;5067300;28;20411;-78
2022/12/03 11:13:49;;;;;;;31.15;13.85;;;;;;;2.23;100.00;99041.59;5069601;28;20048;-78
2022/12/03 11:16:49;;;;;;;31.02;12.73;;;;;;;2.32;100.00;99039.94;5063028;28;20075;-78
2022/12/03 11:19:16;;;;;;;31.67;13.63;;;;;;;2.37;100.00;99056.47;5068929;28;20048;-78
2022/12/03 11:22:13;;;;;;;32.90;14.25;;;;;;;2.40;100.00;99055.34;5069614;28;20500;-78
2022/12/03 11:24:40;;;;;;;30.08;13.82;;;;;;;2.37;100.00;99058.31;5067306;28;20048;-78
2022/12/03 11:27:23;;;;;;;34.88;14.25;;;;;;;2.37;100.00;99053.78;5069682;28;20048;-78
2022/12/03 11:29:55;;;;;;;34.90;14.90;;;;;;;2.40;100.00;99050.81;5068215;28;20052;-78
2022/12/03 11:33:03;;;;;;;32.42;12.75;;;;;;;2.38;100.00;99038.53;5069328;28;20058;-78
2022/12/03 11:35:37;;;;;;;31.05;13.57;;;;;;;2.40;100.00;99050.00;5046420;28;20117;-78
2022/12/03 11:38:43;;;;;;;28.23;12.43;;;;;;;2.31;100.00;99040.91;5064711;28;20040;-78
2022/12/03 11:41:12;;;;;;;25.65;12.30;;;;;;;2.29;100.00;99051.78;5066454;28;20131;-78
2022/12/03 11:44:04;;;;;;;31.83;12.50;;;;;;;2.38;100.00;99047.44;5068317;28;20480;-78
2022/12/03 11:46:40;;;;;;;34.55;12.63;;;;;;;2.14;100.00;99029.00;5065049;28;20052;-79
2022/12/03 11:49:23;;;;;;;25.90;11.43;;;;;;;2.22;100.00;99028.31;5068926;28;20044;-78
2022/12/03 11:51:50;;;;;;;31.10;11.68;;;;;;;2.05;100.00;99016.41;5068605;28;20052;-78
2022/12/03 11:54:21;;;;;;;29.63;10.98;;;;;;;2.18;100.00;99029.56;5066460;28;20045;-78
2022/12/03 11:56:50;;;;;;;29.50;11.45;;;;;;;2.18;100.00;99021.50;5068990;28;20049;-78
2022/12/03 11:59:18;;;;;;;27.77;10.77;;;;;;;2.20;100.00;99022.22;5068765;28;20481;-78
2022/12/03 12:01:45;;;;;;;27.48;13.15;;;;;;;2.33;100.00;99035.41;5067654;28;20068;-78
2022/12/03 12:04:28;;;;;;;27.23;11.65;;;;;;;2.35;100.00;99028.94;5068980;28;20060;-78
2022/12/03 12:06:56;;;;;;;27.10;12.02;;;;;;;2.24;100.00;99008.44;5071189;28;20139;-78
2022/12/03 12:09:49;;;;;;;31.20;11.95;;;;;;;2.41;100.00;99014.97;5073163;28;20041;-78
2022/12/03 12:12:26;;;;;;;23.35;11.15;;;;;;;2.45;100.00;99010.16;5069017;28;20040;-78
2022/12/03 12:14:54;;;;;;;28.23;11.77;;;;;;;2.35;100.00;99006.59;5073507;28;20049;-78
2022/12/03 12:17:33;;;;;;;28.05;10.93;;;;;;;2.32;100.00;99009.56;5065213;28;20040;-77
2022/12/03 12:20:22;;;;;;;27.58;11.05;;;;;;;2.28;100.00;99006.31;5072221;28;20045;-77
2022/12/03 12:22:49;;;;;;;33.97;12.88;;;;;;;2.23;100.00;99011.22;5067512;28;20048;-77
2022/12/03 12:25:37;;;;;;;28.58;11.25;;;;;;;2.09;100.00;98994.53;5072419;28;20040;-77
2022/12/03 12:28:03;;;;;;;26.85;11.48;;;;;;;2.24;100.00;99013.78;5071624;28;20110;-77
2022/12/03 12:30:31;;;;;;;23.30;10.07;;;;;;;2.21;100.00;98984.53;5072650;28;20565;-77
2022/12/03 12:33:10;;;;;;;28.70;10.43;;;;;;;2.24;100.00;98975.38;5071171;28;20049;-77
2022/12/03 12:35:37;;;;;;;30.50;12.82;;;;;;;2.40;100.00;98996.31;5070533;28;20485;-77
2022/12/03 12:38:13;;;;;;;35.25;13.65;;;;;;;2.28;100.00;98990.22;5072901;28;20525;-77
2022/12/03 12:40:43;;;;;;;30.08;11.65;;;;;;;2.23;100.00;98960.25;5065518;28;20048;-77
2022/12/03 12:43:20;;;;;;;28.85;11.85;;;;;;;2.36;100.00;98976.94;5070777;28;20053;-77
2022/12/03 12:45:50;;;;;;;30.38;11.43;;;;;;;2.44;100.00;98992.41;5072544;28;20068;-77
2022/12/03 12:48:22;;;;;;;27.08;11.27;;;;;;;2.22;100.00;98964.78;5070844;28;20408;-77
2022/12/03 12:50:51;;;;;;;26.42;11.52;;;;;;;2.30;100.00;98964.97;5072234;28;20040;-77
2022/12/03 12:53:22;;;;;;;28.98;11.73;;;;;;;2.43;100.00;98979.94;5070912;28;20407;-77
2022/12/03 12:55:55;;;;;;;32.92;12.68;;;;;;;2.33;100.00;98974.53;5072007;28;20049;-77
2022/12/03 12:58:22;;;;;;;30.70;12.73;;;;;;;2.30;100.00;98980.19;5068676;28;20044;-77
2022/12/03 13:00:53;;;;;;;33.92;11.20;;;;;;;2.26;100.00;98971.56;5071307;28;20044;-77
2022/12/03 13:03:22;;;;;;;28.95;13.32;;;;;;;2.26;100.00;98968.06;5071177;28;20059;-77
2022/12/03 13:05:50;;;;;;;24.23;10.60;;;;;;;2.08;100.00;98960.66;5068744;28;20070;-77
2022/12/03 13:08:22;;;;;;;33.25;12.93;;;;;;;2.07;100.00;98977.72;5072137;28;20492;-77
2022/12/03 13:10:49;;;;;;;34.08;13.07;;;;;;;1.99;100.00;98972.19;5060468;28;20700;-77
2022/12/03 13:13:20;;;;;;;35.53;13.10;;;;;;;2.02;100.00;98965.69;5066069;28;20056;-77
2022/12/03 13:16:07;;;;;;;32.67;12.07;;;;;;;2.06;100.00;98967.13;5071786;28;20537;-77
2022/12/03 13:18:39;;;;;;;35.75;13.70;;;;;;;2.09;100.00;98964.16;5070190;28;20408;-78
2022/12/03 13:21:26;;;;;;;30.50;11.82;;;;;;;2.20;100.00;98947.97;5070903;28;20510;-77
2022/12/03 13:23:54;;;;;;;33.13;12.07;;;;;;;2.11;100.00;98925.50;5069807;28;20044;-77
2022/12/03 13:26:25;;;;;;;31.23;12.80;;;;;;;2.31;100.00;98960.44;5067023;28;20052;-79
2022/12/03 13:28:54;;;;;;;35.05;13.88;;;;;;;2.28;100.00;98945.44;5070661;28;20052;-78
2022/12/03 13:31:25;;;;;;;29.70;12.65;;;;;;;2.25;100.00;98942.22;5071776;28;20132;-79
2022/12/03 13:33:52;;;;;;;30.98;13.52;;;;;;;2.30;100.00;98942.63;5062294;28;20052;-78
2022/12/03 13:36:20;;;;;;;33.22;12.73;;;;;;;2.22;100.00;98915.66;5071146;28;20048;-79
2022/12/03 13:38:47;;;;;;;34.33;13.52;;;;;;;2.22;100.00;98929.06;5071766;28;20083;-79
2022/12/03 13:43:57;;;;;;;33.55;13.88;;;;;;;2.34;100.00;98940.53;5069520;28;20040;-79
2022/12/03 13:46:25;;;;;;;40.90;14.65;;;;;;;2.25;100.00;98942.22;5069139;28;20480;-76
2022/12/03 13:48:52;;;;;;;39.97;15.52;;;;;;;2.25;100.00;98943.03;5070898;28;20449;-76
2022/12/03 13:51:25;;;;;;;35.28;13.60;;;;;;;2.27;100.00;98940.22;5071546;28;20052;-77
2022/12/03 13:53:53;;;;;;;38.83;14.48;;;;;;;2.10;100.00;98936.38;5069031;28;20052;-77
2022/12/03 13:56:26;;;;;;;40.50;15.55;;;;;;;2.18;100.00;98955.28;5071148;28;20056;-77
2022/12/03 13:58:53;;;;;;;32.80;13.27;;;;;;;1.99;100.00;98948.06;5070548;28;20056;-79
2022/12/03 14:01:19;;;;;;;47.17;14.95;;;;;;;2.03;100.00;98951.31;5069320;28;20048;-79
2022/12/03 14:03:47;;;;;;;35.35;13.07;;;;;;;1.98;100.00;98945.50;5070160;28;20059;-79
2022/12/03 14:06:14;;;;;;;38.40;13.48;;;;;;;1.96;100.00;98932.25;5063012;28;20419;-77
2022/12/03 14:08:41;;;;;;;38.97;13.55;;;;;;;2.04;100.00;98959.22;5068997;28;20802;-77
2022/12/03 14:11:07;;;;;;;33.60;12.35;;;;;;;2.04;100.00;98947.66;5066820;28;20063;-77
2022/12/03 14:13:34;;;;;;;38.17;14.38;;;;;;;1.91;100.00;98934.47;5069954;28;20044;-77
2022/12/03 14:16:01;;;;;;;34.50;13.57;;;;;;;1.97;100.00;98939.28;5070389;28;20127;-77
2022/12/03 14:18:27;;;;;;;35.08;14.55;;;;;;;1.96;100.00;98932.25;5069288;28;20139;-78
2022/12/03 14:20:55;;;;;;;31.92;13.27;;;;;;;1.93;100.00;98932.50;5069883;28;20045;-77
2022/12/03 14:23:22;;;;;;;35.95;13.95;;;;;;;1.89;100.00;98950.69;5069899;28;20450;-78
2022/12/03 14:25:48;;;;;;;36.63;13.95;;;;;;;1.91;100.00;98947.88;5070710;28;20060;-78
2022/12/03 14:28:15;;;;;;;32.78;13.80;;;;;;;1.79;100.00;98935.53;5068883;28;20055;-78
2022/12/03 14:30:41;;;;;;;29.98;13.30;;;;;;;1.72;100.00;98937.94;5067533;28;20060;-78
2022/12/03 14:33:08;;;;;;;35.38;13.25;;;;;;;1.63;100.00;98930.69;5065683;28;20041;-79
2022/12/03 14:35:34;;;;;;;39.55;12.80;;;;;;;1.71;100.00;98947.78;5070351;28;20135;-79
2022/12/03 14:38:02;;;;;;;36.28;13.48;;;;;;;1.64;100.00;98929.69;5063280;28;20106;-79
2022/12/03 14:40:29;;;;;;;42.92;14.75;;;;;;;1.73;100.00;98948.53;5070483;28;20105;-79
2022/12/03 14:42:56;;;;;;;47.22;16.63;;;;;;;1.72;100.00;98957.53;5068986;28;20127;-79
2022/12/03 14:45:23;;;;;;;37.85;12.18;;;;;;;1.54;100.00;98935.03;5068281;28;20051;-79
2022/12/03 14:47:50;;;;;;;29.45;11.90;;;;;;;1.63;100.00;98955.66;5065090;28;20139;-79
2022/12/03 14:50:17;;;;;;;31.52;13.30;;;;;;;1.70;100.00;98961.31;5069103;28;20448;-79
2022/12/03 14:52:43;;;;;;;34.22;11.85;;;;;;;1.75;100.00;98967.16;5065812;28;20503;-79
